Time;durP1;ratioP1;P1;durP2;ratioP2;P2;SDS_P1;SDS_P2;PMS_P1;PMS_P2;Temp;Humidity;BMP_temperature;BMP_pressure;BME280_temperature;BME280_humidity;BME280_pressure;Samples;Min_cycle;Max_cycle;Signal;HPM_P1;HPM_P2
2023/08/07 00:02:19;;;;;;;1.60;0.60;;;15.10;81.30;;;;;;5049689;28;22209;-87
2023/08/07 00:04:47;;;;;;;0.98;0.50;;;15.20;81.20;;;;;;5051854;28;20029;-89
2023/08/07 00:07:14;;;;;;;2.05;0.50;;;15.20;80.70;;;;;;5050839;28;20403;-89
2023/08/07 00:09:42;;;;;;;1.02;0.60;;;15.20;80.30;;;;;;5053659;28;20025;-90
2023/08/07 00:12:10;;;;;;;0.85;0.60;;;15.30;80.30;;;;;;5052922;28;20028;-87
2023/08/07 00:14:37;;;;;;;1.60;0.50;;;15.20;80.20;;;;;;5053895;28;20028;-81
2023/08/07 00:17:05;;;;;;;1.13;0.70;;;15.30;79.90;;;;;;5050396;28;20041;-81
2023/08/07 00:19:33;;;;;;;1.02;0.70;;;15.30;79.70;;;;;;5039597;28;20108;-80
2023/08/07 00:22:00;;;;;;;1.67;0.80;;;15.30;79.70;;;;;;5053146;28;20116;-80
2023/08/07 00:24:27;;;;;;;3.42;0.73;;;15.30;79.70;;;;;;5052693;28;20021;-79
2023/08/07 00:26:55;;;;;;;1.63;0.70;;;15.40;79.60;;;;;;5060926;28;20478;-88
2023/08/07 00:29:22;;;;;;;2.58;0.80;;;15.40;79.50;;;;;;5068265;28;20020;-88
2023/08/07 00:31:50;;;;;;;1.75;0.70;;;15.40;79.20;;;;;;5058314;28;20044;-80
2023/08/07 00:34:17;;;;;;;1.45;0.80;;;15.40;78.70;;;;;;5054299;28;20068;-80
2023/08/07 00:36:44;;;;;;;2.33;0.73;;;15.40;78.60;;;;;;5064479;28;20033;-80
2023/08/07 00:39:12;;;;;;;2.05;0.82;;;15.50;78.30;;;;;;5048478;28;20036;-91
2023/08/07 00:41:39;;;;;;;0.88;0.50;;;15.50;78.30;;;;;;5060370;28;20120;-81
2023/08/07 00:44:07;;;;;;;1.63;0.57;;;15.60;78.00;;;;;;5045749;28;20029;-79
2023/08/07 00:46:35;;;;;;;4.38;0.55;;;15.70;77.90;;;;;;5057140;28;20037;-79
2023/08/07 00:49:03;;;;;;;5.97;0.80;;;15.70;77.70;;;;;;5062360;28;20375;-79
2023/08/07 00:51:31;;;;;;;2.20;0.82;;;15.90;77.20;;;;;;5058875;28;20084;-79
2023/08/07 00:53:58;;;;;;;3.45;0.85;;;15.90;77.20;;;;;;5050935;28;20060;-79
2023/08/07 00:56:27;;;;;;;2.97;1.27;;;16.00;77.20;;;;;;5061307;28;20078;-83
2023/08/07 00:58:54;;;;;;;4.43;0.73;;;16.00;77.10;;;;;;5056528;28;20420;-79
2023/08/07 01:01:21;;;;;;;2.55;0.77;;;16.20;77.30;;;;;;5051024;28;20056;-88
2023/08/07 01:03:49;;;;;;;3.60;0.73;;;16.30;77.20;;;;;;5046537;28;20025;-79
2023/08/07 01:06:17;;;;;;;3.13;0.70;;;16.40;77.30;;;;;;5059934;28;20025;-82
2023/08/07 01:08:45;;;;;;;3.08;0.75;;;16.50;77.00;;;;;;5059868;28;20033;-79
2023/08/07 01:11:36;;;;;;;2.83;0.70;;;16.70;76.60;;;;;;5054851;28;20104;-79
2023/08/07 01:14:30;;;;;;;0.73;0.52;;;16.70;76.10;;;;;;5061371;28;20078;-85
2023/08/07 01:17:04;;;;;;;1.75;0.65;;;16.80;75.50;;;;;;5056922;28;20040;-79
2023/08/07 01:19:34;;;;;;;2.97;0.47;;;16.80;75.30;;;;;;5052230;28;20048;-80
2023/08/07 01:22:11;;;;;;;1.38;0.50;;;16.80;74.80;;;;;;5050729;28;20029;-80
2023/08/07 01:24:40;;;;;;;3.67;0.70;;;16.90;74.60;;;;;;5053134;28;20116;-80
2023/08/07 01:27:21;;;;;;;1.95;0.65;;;16.80;74.50;;;;;;5052658;28;20059;-79
2023/08/07 01:30:06;;;;;;;2.15;1.05;;;16.80;74.60;;;;;;5044882;28;20075;-79
2023/08/07 01:32:56;;;;;;;1.88;0.55;;;16.70;74.60;;;;;;5051690;28;20037;-85
2023/08/07 01:35:29;;;;;;;1.77;0.82;;;16.70;74.90;;;;;;5066462;28;20029;-88
2023/08/07 01:37:59;;;;;;;1.20;0.70;;;16.50;75.50;;;;;;5058530;28;20050;-85
2023/08/07 01:40:27;;;;;;;0.70;0.45;;;16.40;75.90;;;;;;5045311;28;20026;-81
2023/08/07 01:42:55;;;;;;;1.15;0.73;;;16.40;76.40;;;;;;5038456;28;20094;-87
2023/08/07 01:45:27;;;;;;;2.15;0.98;;;16.40;76.40;;;;;;5050154;28;20040;-90
2023/08/07 01:47:55;;;;;;;2.75;1.00;;;16.30;76.40;;;;;;5032974;28;20034;-80
2023/08/07 01:50:24;;;;;;;1.00;0.85;;;16.30;76.40;;;;;;5039273;28;20028;-80
2023/08/07 01:52:52;;;;;;;2.00;1.10;;;16.20;76.40;;;;;;5051156;28;20036;-84
2023/08/07 01:55:21;;;;;;;3.10;0.60;;;16.20;76.50;;;;;;5053845;28;20079;-87
2023/08/07 01:57:49;;;;;;;2.50;0.60;;;16.20;76.40;;;;;;5053842;28;20021;-84
2023/08/07 02:00:16;;;;;;;0.55;0.50;;;16.20;76.20;;;;;;5053522;28;20483;-86
2023/08/07 02:02:46;;;;;;;1.63;0.60;;;16.20;76.10;;;;;;5052750;28;20036;-80
2023/08/07 02:05:14;;;;;;;1.13;0.50;;;16.20;76.00;;;;;;5033587;28;20029;-81
2023/08/07 02:07:42;;;;;;;1.83;0.70;;;16.20;76.20;;;;;;5033782;28;20029;-90
2023/08/07 02:10:10;;;;;;;2.35;0.73;;;16.20;76.60;;;;;;5032534;28;20076;-80
2023/08/07 02:12:37;;;;;;;2.35;0.70;;;16.20;76.50;;;;;;5033873;28;20442;-89
2023/08/07 02:15:05;;;;;;;2.38;0.90;;;16.20;76.50;;;;;;5033628;28;20071;-84
2023/08/07 02:17:33;;;;;;;1.88;0.68;;;16.20;76.60;;;;;;5033701;28;20402;-80
2023/08/07 02:20:00;;;;;;;1.80;0.63;;;16.20;76.50;;;;;;5033526;28;20400;-86
2023/08/07 02:22:27;;;;;;;1.83;0.85;;;16.10;76.60;;;;;;5033646;28;20025;-82
2023/08/07 02:24:55;;;;;;;4.63;0.85;;;16.10;76.80;;;;;;5044116;28;20033;-80
2023/08/07 02:27:22;;;;;;;2.13;0.80;;;16.10;77.10;;;;;;5052959;28;20436;-81
2023/08/07 02:29:50;;;;;;;1.50;0.60;;;16.10;77.20;;;;;;5051142;28;20371;-80
2023/08/07 02:32:18;;;;;;;1.95;0.75;;;16.10;77.40;;;;;;5032790;28;20108;-80
2023/08/07 02:34:46;;;;;;;1.40;0.60;;;16.10;77.70;;;;;;5046549;28;20471;-81
2023/08/07 02:37:13;;;;;;;1.30;0.70;;;16.10;77.80;;;;;;5051814;28;20087;-80
2023/08/07 02:39:42;;;;;;;1.10;0.60;;;16.10;77.80;;;;;;5048231;28;20060;-85
2023/08/07 02:42:09;;;;;;;1.13;0.50;;;16.00;77.90;;;;;;5052587;28;20028;-81
2023/08/07 02:44:37;;;;;;;0.70;0.60;;;16.00;77.90;;;;;;5052687;28;20021;-79
2023/08/07 02:47:04;;;;;;;1.30;0.52;;;15.90;77.80;;;;;;5052178;28;20403;-90
2023/08/07 02:49:32;;;;;;;0.68;0.32;;;15.90;78.00;;;;;;5052752;28;20029;-80
2023/08/07 02:51:59;;;;;;;1.27;0.60;;;15.90;78.10;;;;;;5052482;28;20033;-87
2023/08/07 02:54:26;;;;;;;1.23;0.75;;;16.00;77.80;;;;;;5051421;28;20090;-83
2023/08/07 02:56:54;;;;;;;1.50;0.60;;;15.90;76.90;;;;;;5053133;28;20038;-87
2023/08/07 02:59:21;;;;;;;1.10;0.60;;;16.00;77.20;;;;;;5051010;28;20463;-84
2023/08/07 03:01:50;;;;;;;2.78;0.65;;;16.10;77.30;;;;;;5032898;28;20030;-81
2023/08/07 03:04:17;;;;;;;2.05;0.50;;;16.10;77.20;;;;;;5032730;28;20357;-83
2023/08/07 03:06:45;;;;;;;1.73;0.60;;;16.20;77.10;;;;;;5052498;28;20040;-84
2023/08/07 03:09:12;;;;;;;6.75;4.57;;;16.20;77.00;;;;;;5047800;28;20032;-87
2023/08/07 03:11:40;;;;;;;0.85;0.85;;;16.20;76.90;;;;;;5032582;28;20033;-79
2023/08/07 03:14:07;;;;;;;1.30;0.63;;;16.30;76.30;;;;;;5038788;28;20491;-80
2023/08/07 03:16:35;;;;;;;1.45;0.70;;;16.30;76.30;;;;;;5067977;28;20037;-79
2023/08/07 03:19:02;;;;;;;1.35;1.00;;;16.30;75.20;;;;;;5052862;28;20033;-82
2023/08/07 03:21:29;;;;;;;0.57;0.30;;;16.20;74.40;;;;;;5052625;28;20446;-80
2023/08/07 03:23:57;;;;;;;1.88;0.70;;;16.30;74.50;;;;;;5054402;28;20017;-79
2023/08/07 03:26:24;;;;;;;3.72;0.40;;;16.20;74.30;;;;;;5041532;28;20259;-80
2023/08/07 03:28:54;;;;;;;1.52;0.50;;;16.20;74.40;;;;;;5035283;28;20036;-79
2023/08/07 03:31:21;;;;;;;1.13;0.55;;;16.30;74.60;;;;;;5063104;28;20137;-80
2023/08/07 03:33:48;;;;;;;1.38;0.52;;;16.30;74.60;;;;;;5058724;28;20072;-80
2023/08/07 03:36:18;;;;;;;1.70;0.60;;;16.40;74.40;;;;;;5050035;28;20440;-88
2023/08/07 03:38:45;;;;;;;1.65;0.65;;;16.40;74.60;;;;;;5051399;28;20369;-81
2023/08/07 03:41:12;;;;;;;0.98;0.55;;;16.40;74.20;;;;;;5053706;28;20491;-81
2023/08/07 03:43:40;;;;;;;1.25;0.70;;;16.40;73.70;;;;;;5054392;28;20028;-84
2023/08/07 03:46:07;;;;;;;1.25;0.60;;;16.40;73.60;;;;;;5064466;28;20029;-82
2023/08/07 03:48:35;;;;;;;0.43;0.35;;;16.40;73.80;;;;;;5060609;28;20063;-83
2023/08/07 03:51:08;;;;;;;1.40;0.47;;;16.40;73.50;;;;;;5072789;28;20028;-80
2023/08/07 03:53:35;;;;;;;0.57;0.40;;;16.50;73.60;;;;;;5053877;28;20033;-80
2023/08/07 03:56:02;;;;;;;0.70;0.40;;;16.50;73.50;;;;;;5042467;28;20036;-80
2023/08/07 03:58:30;;;;;;;0.60;0.45;;;16.50;73.50;;;;;;5036024;28;20025;-80
2023/08/07 04:00:58;;;;;;;0.90;0.50;;;16.50;73.50;;;;;;5045699;28;20032;-83
2023/08/07 04:03:25;;;;;;;1.63;1.00;;;16.50;73.30;;;;;;5057092;28;20029;-80
2023/08/07 04:05:56;;;;;;;0.65;0.52;;;16.40;73.40;;;;;;5057850;28;20108;-82
2023/08/07 04:08:24;;;;;;;1.80;0.60;;;16.30;73.50;;;;;;5056402;28;20559;-81
2023/08/07 04:11:05;;;;;;;3.05;1.17;;;16.30;73.70;;;;;;5056028;28;20025;-81
2023/08/07 04:13:32;;;;;;;1.75;0.55;;;16.30;74.00;;;;;;5041129;28;20040;-83
2023/08/07 04:16:04;;;;;;;1.65;0.80;;;16.30;74.20;;;;;;5035797;28;20029;-81
2023/08/07 04:18:32;;;;;;;3.58;0.70;;;16.30;74.60;;;;;;5035437;28;20048;-79
2023/08/07 04:21:00;;;;;;;1.48;0.50;;;16.30;74.80;;;;;;5042392;28;20025;-80
2023/08/07 04:23:27;;;;;;;1.52;0.70;;;16.30;75.00;;;;;;5055622;28;20029;-80
2023/08/07 04:25:55;;;;;;;2.58;0.68;;;16.30;75.20;;;;;;5055379;28;20025;-79
2023/08/07 04:28:22;;;;;;;0.75;0.47;;;16.30;75.20;;;;;;5055400;28;20061;-79
2023/08/07 04:30:53;;;;;;;1.17;0.60;;;16.30;75.30;;;;;;5055489;28;20108;-80
2023/08/07 04:33:23;;;;;;;2.13;0.50;;;16.40;75.80;;;;;;5055167;28;20032;-80
2023/08/07 04:35:51;;;;;;;2.55;0.55;;;16.30;75.80;;;;;;5054475;28;20026;-81
2023/08/07 04:38:18;;;;;;;2.83;0.70;;;16.30;76.30;;;;;;5055295;28;20382;-81
2023/08/07 04:40:50;;;;;;;3.10;0.60;;;16.30;76.50;;;;;;5054813;28;20098;-81
2023/08/07 04:43:21;;;;;;;2.50;0.88;;;16.30;76.90;;;;;;5055234;28;20075;-87
2023/08/07 04:45:49;;;;;;;1.40;0.70;;;16.20;77.10;;;;;;5055124;28;20461;-88
2023/08/07 04:48:17;;;;;;;4.95;0.80;;;16.30;77.70;;;;;;5054804;28;20064;-80
2023/08/07 04:50:46;;;;;;;2.38;0.60;;;16.20;77.60;;;;;;5055258;28;20097;-88
2023/08/07 04:53:13;;;;;;;3.90;0.70;;;16.20;77.80;;;;;;5054918;28;20415;-80
2023/08/07 04:55:40;;;;;;;2.83;0.65;;;16.10;78.00;;;;;;5052467;28;20021;-83
2023/08/07 04:58:09;;;;;;;3.65;1.00;;;16.10;78.00;;;;;;5054061;28;20488;-81
2023/08/07 05:00:37;;;;;;;2.17;0.52;;;16.10;78.10;;;;;;5054677;28;20422;-79
2023/08/07 05:03:04;;;;;;;2.30;0.40;;;16.10;77.90;;;;;;5054726;28;20530;-80
2023/08/07 05:05:32;;;;;;;2.60;0.70;;;16.00;77.60;;;;;;5053554;28;20032;-80
2023/08/07 05:08:00;;;;;;;3.63;0.98;;;16.00;77.80;;;;;;5053834;28;20041;-82
2023/08/07 05:10:30;;;;;;;1.95;0.40;;;16.00;77.80;;;;;;5055049;28;20104;-89
2023/08/07 05:12:57;;;;;;;1.90;0.68;;;15.90;77.80;;;;;;5051764;28;20052;-80
2023/08/07 05:15:25;;;;;;;1.95;0.60;;;15.90;77.60;;;;;;5048969;28;20464;-79
2023/08/07 05:18:01;;;;;;;1.88;0.70;;;15.90;77.70;;;;;;5034508;28;20072;-81
2023/08/07 05:20:29;;;;;;;1.50;0.65;;;15.90;77.60;;;;;;5034492;28;20435;-80
2023/08/07 05:22:57;;;;;;;1.75;0.40;;;15.80;77.40;;;;;;5035455;28;20025;-83
2023/08/07 05:25:25;;;;;;;0.93;0.50;;;15.80;77.30;;;;;;5036128;28;20298;-90
2023/08/07 05:27:53;;;;;;;4.10;0.65;;;15.80;77.30;;;;;;5050219;28;20487;-86
2023/08/07 05:30:21;;;;;;;1.02;0.50;;;15.90;77.20;;;;;;5036788;28;20032;-79
2023/08/07 05:32:48;;;;;;;1.30;0.50;;;15.80;77.10;;;;;;5049086;28;20052;-86
2023/08/07 05:35:15;;;;;;;0.75;0.40;;;15.80;76.90;;;;;;5056004;28;20023;-87
2023/08/07 05:37:43;;;;;;;0.30;0.30;;;15.80;76.50;;;;;;5049049;28;20041;-86
2023/08/07 05:40:11;;;;;;;1.05;0.40;;;15.70;76.20;;;;;;5054769;28;20506;-82
2023/08/07 05:42:40;;;;;;;0.52;0.40;;;15.70;76.10;;;;;;5059077;28;20040;-80
2023/08/07 05:45:08;;;;;;;1.15;0.38;;;15.70;76.00;;;;;;5058262;28;20027;-80
2023/08/07 05:47:35;;;;;;;0.28;0.28;;;15.70;76.20;;;;;;5051796;28;20048;-85
2023/08/07 05:50:03;;;;;;;0.47;0.40;;;15.70;76.20;;;;;;5057468;28;20418;-81
2023/08/07 05:52:30;;;;;;;1.73;0.60;;;15.60;76.30;;;;;;5056487;28;20467;-79
2023/08/07 05:54:57;;;;;;;2.05;0.50;;;15.60;76.30;;;;;;5063106;28;20513;-80
2023/08/07 05:57:25;;;;;;;2.17;0.75;;;15.60;76.50;;;;;;5059115;28;20032;-80
2023/08/07 05:59:52;;;;;;;2.70;0.68;;;15.70;76.40;;;;;;5053096;28;20391;-79
2023/08/07 06:02:20;;;;;;;0.98;0.52;;;15.60;76.50;;;;;;5056073;28;20064;-79
2023/08/07 06:04:48;;;;;;;5.05;0.68;;;15.60;76.40;;;;;;5063207;28;20056;-78
2023/08/07 06:07:15;;;;;;;2.03;0.70;;;15.60;76.50;;;;;;5058315;28;20071;-79
2023/08/07 06:09:44;;;;;;;1.45;0.40;;;15.50;76.50;;;;;;5054109;28;20033;-78
2023/08/07 06:12:11;;;;;;;1.75;0.50;;;15.60;76.70;;;;;;5055861;28;20032;-78
2023/08/07 06:14:38;;;;;;;2.13;0.50;;;15.60;76.70;;;;;;5056367;28;20039;-79
2023/08/07 06:17:06;;;;;;;0.70;0.50;;;15.60;76.50;;;;;;5053657;28;20107;-79
2023/08/07 06:19:34;;;;;;;1.27;0.40;;;15.60;76.50;;;;;;5053273;28;20029;-79
2023/08/07 06:22:01;;;;;;;0.90;0.50;;;15.60;76.50;;;;;;5052762;28;20529;-78
2023/08/07 06:24:29;;;;;;;1.33;0.60;;;15.60;76.70;;;;;;5054921;28;20032;-82
2023/08/07 06:26:56;;;;;;;0.82;0.50;;;15.60;77.00;;;;;;5041564;28;20380;-79
2023/08/07 06:29:24;;;;;;;2.17;0.43;;;15.60;77.20;;;;;;5049102;28;20063;-84
2023/08/07 06:31:51;;;;;;;2.78;0.60;;;15.50;77.40;;;;;;5044122;28;20053;-78
2023/08/07 06:34:18;;;;;;;2.35;0.85;;;15.50;77.50;;;;;;5052933;28;20087;-78
2023/08/07 06:36:46;;;;;;;5.60;1.10;;;15.50;77.80;;;;;;5053079;28;20025;-83
2023/08/07 06:39:13;;;;;;;1.50;0.90;;;15.50;78.00;;;;;;5052054;28;20021;-78
2023/08/07 06:41:40;;;;;;;2.60;1.00;;;15.50;78.20;;;;;;5049383;28;20025;-79
2023/08/07 06:44:08;;;;;;;3.13;1.30;;;15.40;78.30;;;;;;5052047;28;20024;-78
2023/08/07 06:46:35;;;;;;;2.38;1.02;;;15.40;78.50;;;;;;5050046;28;20039;-78
2023/08/07 06:49:03;;;;;;;2.67;1.30;;;15.40;78.60;;;;;;5050785;28;20028;-78
2023/08/07 06:51:30;;;;;;;2.78;1.00;;;15.40;78.80;;;;;;5052302;28;20387;-78
2023/08/07 06:53:57;;;;;;;2.72;0.90;;;15.30;79.00;;;;;;5047970;28;20020;-82
2023/08/07 06:56:25;;;;;;;2.70;0.95;;;15.30;79.10;;;;;;5052609;28;20013;-79
2023/08/07 06:58:52;;;;;;;2.20;0.80;;;15.30;79.20;;;;;;5042789;28;20084;-78
2023/08/07 07:01:19;;;;;;;4.07;0.85;;;15.30;79.20;;;;;;5047074;28;20128;-80
2023/08/07 07:03:52;;;;;;;3.67;0.80;;;15.30;79.40;;;;;;5048703;28;20544;-78
2023/08/07 07:06:25;;;;;;;2.05;0.70;;;15.30;79.40;;;;;;5052078;28;20391;-77
2023/08/07 07:08:56;;;;;;;1.80;0.70;;;15.30;79.70;;;;;;5049684;28;20034;-78
2023/08/07 07:11:24;;;;;;;0.82;0.55;;;15.30;79.60;;;;;;5046528;28;20434;-78
2023/08/07 07:13:52;;;;;;;3.20;0.80;;;15.20;79.70;;;;;;5033145;28;20068;-77
2023/08/07 07:16:21;;;;;;;2.40;0.90;;;15.20;79.50;;;;;;5035781;28;20063;-79
2023/08/07 07:18:52;;;;;;;1.20;0.80;;;15.20;79.50;;;;;;5051423;28;20111;-77
2023/08/07 07:21:20;;;;;;;2.78;0.60;;;15.20;79.60;;;;;;5058769;28;20025;-78
2023/08/07 07:23:47;;;;;;;1.88;0.65;;;15.10;79.60;;;;;;5065560;28;20035;-77
2023/08/07 07:26:14;;;;;;;2.05;0.73;;;15.10;79.80;;;;;;5059435;28;20035;-83
2023/08/07 07:28:42;;;;;;;1.40;0.70;;;15.10;79.70;;;;;;5063797;28;20035;-78
2023/08/07 07:31:11;;;;;;;1.70;0.80;;;15.10;79.70;;;;;;5052509;28;20059;-78
2023/08/07 07:33:41;;;;;;;0.88;0.60;;;15.10;79.80;;;;;;5056225;28;20025;-78
2023/08/07 07:36:13;;;;;;;3.85;0.60;;;15.10;79.80;;;;;;5055041;28;20021;-78
2023/08/07 07:38:41;;;;;;;2.95;0.80;;;15.10;79.90;;;;;;5056750;28;20063;-77
2023/08/07 07:41:11;;;;;;;2.22;0.73;;;15.10;79.90;;;;;;5056277;28;20128;-79
2023/08/07 07:43:38;;;;;;;0.98;0.68;;;15.10;79.90;;;;;;5051854;28;20036;-85
2023/08/07 07:46:06;;;;;;;4.47;0.80;;;15.10;79.90;;;;;;5056184;28;20044;-84
2023/08/07 07:48:33;;;;;;;3.88;0.88;;;15.10;79.90;;;;;;5056139;28;20122;-79
2023/08/07 07:51:01;;;;;;;2.65;0.82;;;15.00;79.80;;;;;;5056100;28;20686;-86
2023/08/07 07:53:29;;;;;;;2.00;1.00;;;15.00;80.00;;;;;;5056370;28;20472;-88
2023/08/07 07:55:56;;;;;;;3.97;1.20;;;15.00;79.90;;;;;;5053528;28;20025;-78
2023/08/07 07:58:24;;;;;;;3.42;1.00;;;15.00;80.00;;;;;;5053806;28;20025;-85
2023/08/07 08:00:54;;;;;;;1.98;1.00;;;15.00;79.70;;;;;;5055788;28;20029;-85
2023/08/07 08:03:25;;;;;;;4.28;1.20;;;14.90;79.80;;;;;;5049292;28;20074;-79
2023/08/07 08:05:53;;;;;;;3.83;1.45;;;14.90;80.00;;;;;;5055631;28;20111;-84
2023/08/07 08:08:21;;;;;;;3.30;1.45;;;14.80;80.00;;;;;;5071658;28;20033;-85
2023/08/07 08:10:48;;;;;;;3.63;1.60;;;14.80;80.10;;;;;;5056477;28;20026;-83
2023/08/07 08:13:16;;;;;;;3.45;1.58;;;14.80;80.10;;;;;;5059747;28;20103;-81
2023/08/07 08:15:44;;;;;;;4.30;1.70;;;14.80;80.20;;;;;;5050715;28;20074;-80
2023/08/07 08:18:12;;;;;;;2.72;1.70;;;14.80;80.30;;;;;;5051985;28;20534;-77
2023/08/07 08:20:40;;;;;;;4.82;1.58;;;14.70;80.40;;;;;;5053257;28;20040;-78
2023/08/07 08:23:07;;;;;;;2.05;1.50;;;14.70;80.40;;;;;;5051105;28;20383;-78
2023/08/07 08:25:34;;;;;;;2.88;1.63;;;14.70;80.40;;;;;;5052518;28;20437;-81
2023/08/07 08:28:02;;;;;;;4.07;1.92;;;14.70;80.30;;;;;;5055291;28;20075;-78
2023/08/07 08:30:30;;;;;;;4.70;2.10;;;14.70;80.40;;;;;;5052900;28;20128;-80
2023/08/07 08:32:57;;;;;;;4.90;2.40;;;14.70;80.50;;;;;;5053133;28;20476;-82
2023/08/07 08:35:25;;;;;;;4.65;2.08;;;14.70;80.50;;;;;;5052843;28;20040;-80
2023/08/07 08:37:52;;;;;;;6.72;2.45;;;14.70;80.50;;;;;;5055263;28;20029;-81
2023/08/07 08:40:20;;;;;;;4.75;2.28;;;14.70;80.50;;;;;;5055029;28;20120;-81
2023/08/07 08:42:47;;;;;;;4.88;2.22;;;14.70;80.60;;;;;;5051629;28;20020;-78
2023/08/07 08:45:16;;;;;;;4.25;2.03;;;14.70;80.60;;;;;;5051882;28;20021;-80
2023/08/07 08:47:45;;;;;;;5.82;1.70;;;14.60;80.80;;;;;;5052152;28;20364;-78
2023/08/07 08:50:14;;;;;;;6.70;2.00;;;14.50;80.80;;;;;;5051725;28;20071;-85
2023/08/07 08:52:45;;;;;;;7.90;2.45;;;14.50;81.10;;;;;;5053428;28;20079;-83
2023/08/07 08:55:14;;;;;;;3.17;1.42;;;14.60;81.10;;;;;;5052696;28;20475;-82
2023/08/07 08:57:42;;;;;;;5.50;1.90;;;14.50;81.20;;;;;;5053481;28;20028;-82
2023/08/07 09:00:20;;;;;;;5.32;1.98;;;14.50;81.20;;;;;;5052140;28;20044;-79
2023/08/07 09:02:52;;;;;;;1.70;1.38;;;14.50;81.10;;;;;;5051246;28;20059;-82
2023/08/07 09:05:21;;;;;;;5.95;2.15;;;14.50;81.20;;;;;;5053226;28;20036;-80
2023/08/07 09:07:49;;;;;;;4.45;1.60;;;14.50;81.40;;;;;;5052401;28;20509;-78
2023/08/07 09:10:17;;;;;;;5.53;1.58;;;14.40;81.60;;;;;;5049186;28;20106;-79
2023/08/07 09:13:00;;;;;;;4.82;2.17;;;14.40;81.70;;;;;;5050860;28;20037;-78
2023/08/07 09:15:32;;;;;;;7.55;2.42;;;14.50;81.50;;;;;;5051149;28;20108;-83
2023/08/07 09:18:00;;;;;;;4.22;2.38;;;14.40;81.50;;;;;;5052584;28;20032;-78
2023/08/07 09:20:28;;;;;;;6.63;2.65;;;14.50;81.60;;;;;;5050686;28;20032;-79
2023/08/07 09:22:56;;;;;;;8.57;2.92;;;14.40;81.60;;;;;;5052764;28;20021;-79
2023/08/07 09:25:31;;;;;;;8.55;3.05;;;14.40;81.60;;;;;;5050198;28;20427;-78
2023/08/07 09:28:04;;;;;;;8.13;3.10;;;14.40;81.70;;;;;;5057871;28;20386;-83
2023/08/07 09:30:33;;;;;;;7.30;4.20;;;14.40;82.00;;;;;;5052647;28;20052;-82
2023/08/07 09:33:01;;;;;;;6.72;4.00;;;14.40;81.90;;;;;;5050399;28;20119;-79
2023/08/07 09:35:34;;;;;;;9.13;4.80;;;14.50;81.80;;;;;;5048326;28;20021;-79
2023/08/07 09:38:02;;;;;;;9.25;4.47;;;14.40;81.70;;;;;;5049716;28;20112;-80
2023/08/07 09:40:30;;;;;;;8.18;4.07;;;14.40;81.80;;;;;;5052934;28;20044;-79
2023/08/07 09:42:58;;;;;;;8.48;3.55;;;14.40;81.80;;;;;;5050636;28;20036;-78
2023/08/07 09:45:27;;;;;;;7.70;3.22;;;14.40;81.70;;;;;;5054557;28;20021;-77
2023/08/07 09:48:07;;;;;;;9.80;3.95;;;14.40;81.80;;;;;;5049913;28;20482;-78
2023/08/07 09:50:34;;;;;;;5.93;3.20;;;14.40;82.00;;;;;;5049294;28;20017;-84
2023/08/07 09:53:02;;;;;;;6.55;3.00;;;14.40;81.90;;;;;;5048573;28;20020;-79
2023/08/07 09:55:31;;;;;;;7.50;2.90;;;14.40;81.90;;;;;;5050566;28;20025;-80
2023/08/07 09:58:00;;;;;;;5.68;2.72;;;14.40;82.00;;;;;;5052115;28;20013;-84
2023/08/07 10:00:28;;;;;;;3.78;2.05;;;14.40;82.10;;;;;;5051060;28;20029;-79
2023/08/07 10:02:55;;;;;;;6.93;2.78;;;14.50;82.10;;;;;;5050068;28;20420;-79
2023/08/07 10:05:23;;;;;;;4.40;2.42;;;14.50;82.00;;;;;;5052065;28;20087;-80
2023/08/07 10:07:51;;;;;;;5.43;2.17;;;14.50;81.90;;;;;;5053424;28;20041;-85
2023/08/07 10:10:19;;;;;;;4.85;2.17;;;14.60;81.80;;;;;;5051663;28;20017;-84
2023/08/07 10:12:48;;;;;;;3.42;2.53;;;14.50;81.80;;;;;;5051649;28;20029;-79
2023/08/07 10:15:19;;;;;;;6.03;2.80;;;14.50;81.90;;;;;;5050998;28;20494;-81
2023/08/07 10:17:47;;;;;;;8.25;3.70;;;14.60;81.80;;;;;;5054188;28;20041;-82
2023/08/07 10:20:15;;;;;;;7.47;3.65;;;14.60;81.70;;;;;;5053015;28;20017;-78
2023/08/07 10:22:45;;;;;;;6.03;3.17;;;14.50;81.70;;;;;;5052740;28;20450;-78
2023/08/07 10:25:12;;;;;;;7.63;4.18;;;14.60;81.80;;;;;;5050793;28;20028;-81
2023/08/07 10:27:42;;;;;;;6.25;3.08;;;14.50;81.70;;;;;;5050495;28;20790;-79
2023/08/07 10:30:13;;;;;;;6.90;3.95;;;14.60;81.80;;;;;;5052253;28;20021;-80
2023/08/07 10:32:42;;;;;;;9.90;4.57;;;14.60;81.90;;;;;;5050435;28;20021;-78
2023/08/07 10:35:09;;;;;;;5.70;3.60;;;14.60;81.80;;;;;;5050189;28;20461;-80
2023/08/07 10:37:40;;;;;;;6.53;3.63;;;14.60;81.80;;;;;;5049024;28;20064;-81
2023/08/07 10:40:09;;;;;;;6.43;4.45;;;14.60;81.90;;;;;;5046438;28;20021;-79
2023/08/07 10:42:54;;;;;;;7.93;4.45;;;14.60;81.90;;;;;;5050787;28;20029;-82
2023/08/07 10:45:23;;;;;;;9.27;3.80;;;14.60;82.10;;;;;;5048247;28;20033;-82
2023/08/07 10:48:13;;;;;;;6.97;4.20;;;14.70;81.90;;;;;;5046459;28;20037;-78
2023/08/07 10:51:03;;;;;;;6.85;3.70;;;14.60;81.70;;;;;;5050415;28;20049;-85
2023/08/07 10:53:31;;;;;;;9.63;3.83;;;14.60;81.70;;;;;;5048184;28;20025;-86
2023/08/07 10:56:03;;;;;;;6.20;3.33;;;14.50;81.80;;;;;;5052268;28;20036;-85
2023/08/07 10:58:36;;;;;;;5.57;3.10;;;14.50;81.90;;;;;;5051480;28;20036;-84
2023/08/07 11:01:19;;;;;;;7.43;3.45;;;14.60;82.00;;;;;;5047588;28;20025;-83
2023/08/07 11:03:53;;;;;;;5.72;3.10;;;14.50;82.00;;;;;;5051514;28;20078;-84
2023/08/07 11:06:27;;;;;;;5.97;2.90;;;14.50;82.10;;;;;;5051248;28;20029;-80
2023/08/07 11:08:55;;;;;;;8.60;3.17;;;14.50;81.90;;;;;;5050479;28;20086;-83
2023/08/07 11:11:22;;;;;;;8.52;2.90;;;14.50;81.90;;;;;;5051991;28;20107;-82
2023/08/07 11:13:50;;;;;;;5.25;2.55;;;14.40;82.00;;;;;;5049976;28;20029;-77
2023/08/07 11:16:20;;;;;;;4.70;2.38;;;14.40;82.00;;;;;;5051497;28;20074;-85
2023/08/07 11:18:49;;;;;;;6.63;2.33;;;14.40;82.00;;;;;;5048998;28;20056;-80
2023/08/07 11:21:16;;;;;;;5.15;2.10;;;14.40;82.10;;;;;;5050070;28;20475;-85
2023/08/07 11:23:45;;;;;;;5.50;2.25;;;14.30;82.10;;;;;;5049461;28;20464;-80
2023/08/07 11:26:14;;;;;;;8.15;3.00;;;14.40;82.30;;;;;;5050190;28;20087;-78
2023/08/07 11:28:41;;;;;;;8.75;3.08;;;14.40;82.30;;;;;;5045899;28;20095;-76
2023/08/07 11:31:09;;;;;;;5.97;2.67;;;14.40;82.20;;;;;;5048264;28;20042;-85
2023/08/07 11:33:37;;;;;;;4.43;2.42;;;14.50;82.30;;;;;;5054379;28;20100;-79
2023/08/07 11:36:10;;;;;;;3.88;2.50;;;14.50;82.20;;;;;;5051097;28;20021;-81
2023/08/07 11:38:45;;;;;;;4.65;2.40;;;14.50;82.30;;;;;;5046410;28;20099;-81
2023/08/07 11:41:15;;;;;;;5.05;2.45;;;14.60;82.00;;;;;;5045452;28;20509;-79
2023/08/07 11:43:43;;;;;;;6.57;2.25;;;14.60;81.90;;;;;;5043554;28;20438;-81
2023/08/07 11:46:12;;;;;;;5.72;2.80;;;14.60;81.90;;;;;;5051085;28;20017;-79
2023/08/07 11:48:41;;;;;;;4.40;2.38;;;14.60;81.80;;;;;;5049025;28;20273;-81
2023/08/07 11:51:09;;;;;;;5.28;2.30;;;14.50;81.90;;;;;;5049128;28;20095;-81
2023/08/07 11:53:39;;;;;;;5.82;2.55;;;14.50;81.80;;;;;;5052293;28;20074;-83
2023/08/07 11:56:14;;;;;;;5.95;2.30;;;14.50;81.80;;;;;;5050144;28;20059;-78
2023/08/07 11:58:45;;;;;;;5.80;2.60;;;14.50;82.00;;;;;;5046333;28;20044;-87
2023/08/07 12:01:18;;;;;;;5.90;2.60;;;14.50;82.00;;;;;;5048091;28;20075;-85
2023/08/07 12:03:54;;;;;;;3.85;2.58;;;14.50;82.00;;;;;;5051398;28;20534;-83
2023/08/07 12:06:22;;;;;;;4.50;2.45;;;14.50;81.70;;;;;;5051564;28;20033;-86
2023/08/07 12:08:51;;;;;;;4.45;2.60;;;14.40;81.90;;;;;;5053697;28;20223;-85
2023/08/07 12:11:19;;;;;;;5.68;2.35;;;14.40;82.00;;;;;;5069421;28;20479;-80
2023/08/07 12:13:47;;;;;;;4.20;2.40;;;14.40;82.00;;;;;;5052002;28;20060;-78
2023/08/07 12:16:17;;;;;;;3.90;2.50;;;14.30;82.20;;;;;;5054651;28;20420;-79
2023/08/07 12:18:49;;;;;;;6.35;3.22;;;14.40;82.30;;;;;;5053530;28;20543;-80
2023/08/07 12:21:25;;;;;;;5.38;3.50;;;14.40;82.20;;;;;;5052297;28;20506;-78
2023/08/07 12:23:56;;;;;;;5.97;2.95;;;14.40;82.10;;;;;;5053620;28;20086;-79
2023/08/07 12:26:24;;;;;;;5.05;3.10;;;14.40;82.10;;;;;;5054135;28;20431;-79
2023/08/07 12:28:52;;;;;;;5.97;3.30;;;14.30;82.00;;;;;;5053709;28;20052;-79
2023/08/07 12:31:20;;;;;;;7.93;3.08;;;14.30;82.30;;;;;;5054705;28;20029;-80
2023/08/07 12:33:47;;;;;;;6.20;2.75;;;14.30;82.20;;;;;;5054052;28;20086;-87
2023/08/07 12:36:15;;;;;;;6.47;3.60;;;14.20;82.30;;;;;;5053228;28;20036;-86
2023/08/07 12:38:42;;;;;;;8.63;3.05;;;14.30;82.40;;;;;;5046500;28;20406;-77
2023/08/07 12:41:10;;;;;;;5.28;3.20;;;14.20;82.40;;;;;;5051171;28;20035;-79
2023/08/07 12:43:37;;;;;;;6.60;2.78;;;14.20;82.30;;;;;;5052632;28;20048;-83
2023/08/07 12:46:04;;;;;;;5.78;3.08;;;14.20;82.20;;;;;;5055097;28;20025;-81
2023/08/07 12:48:32;;;;;;;5.93;3.50;;;14.20;82.30;;;;;;5053536;28;20037;-79
2023/08/07 12:50:59;;;;;;;5.57;2.80;;;14.20;82.30;;;;;;5053850;28;20476;-83
2023/08/07 12:53:29;;;;;;;6.00;2.65;;;14.20;82.30;;;;;;5050247;28;20033;-79
2023/08/07 12:55:56;;;;;;;6.40;2.70;;;14.20;82.30;;;;;;5049763;28;20029;-79
2023/08/07 12:58:25;;;;;;;6.95;2.33;;;14.20;82.20;;;;;;5069183;28;20020;-79